Tropical Cyclones
[Index]
Main Index Home Page Stock Weather Photos Extreme Storms Discussion Storm News and Storm Chasing Reports Tropical Cyclones / Hurricanes / Typhoons Weather Data and Links Wild Fires / Bushfires Weather Observation Techniques Weather Picture Catalogue Tornado Pictures and Reports Stock Video Footage and DVDs for sale
Season 1968-1969 Tropical Cyclone CHERI Track Map
Season 1968-1969 Summaries: [BoM-AU] [JTWC-AU] [JTWC-SIO] [JTWC-SPAC] [JTWC-SH]
<<- Previous TC | JTWC 1968-1969 Season | Next TC ->>

click for intensity scale information  Lat/long Grid: Show Hide

 Date Labels: Show Hide

Joint Typhoon Warning Centre Cyclone Data

Name: CHERI
Number: 687 / 6909

27 Dec 1968 00:00 UTC to 02 Jan 1969 18:00 UTC

    date/time    lat    long     hPa   cat  kts
1968-12-27 00   11.1   112.9                  20          
1968-12-27 06   11.3   112.7                  25          
1968-12-27 12   11.5   112.5                  25          
1968-12-27 18   11.8   112.2                  20          
1968-12-28 00   11.9   112.1                  20          
1968-12-28 06   12.0   112.0                  15          
1968-12-28 12   12.0   112.0                  15          
1968-12-28 18   12.0   112.0                  20          
1968-12-29 00   12.0   111.9                  20          
1968-12-29 06   12.4   111.2                  20          
1968-12-29 12   12.9   110.2                  20          
1968-12-29 18   13.5   109.2                  25          
1968-12-30 00   14.0   108.1                  25          
1968-12-30 06   14.4   107.0                  30          
1968-12-30 12   14.9   105.8                  30          
1968-12-30 18   15.4   104.5                  30          
1968-12-31 00   15.8   103.4                  30          
1968-12-31 06   16.1   102.6                  20          
1968-12-31 12   16.4   102.0                  15          
1968-12-31 18   16.7   101.6                  20          
1969-01-01 00   17.0   100.8                  20          
1969-01-01 06   17.4    99.3                  30          
1969-01-01 12   17.8    97.3                  30          
1969-01-01 18   18.3    95.3                  25          
1969-01-02 00   19.1    93.4                  25          
1969-01-02 06   20.3    91.8                  20          
1969-01-02 12   21.7    90.2                              
1969-01-02 18   23.1    88.7                              
Winds are 1-min average.

Tropical cyclone tracks developed by Michael Bath using data from the Joint Typhoon Warning Centre Best Tracks and Google Maps.


[Australian Severe Weather index] [Copyright Notice] [Email Contacts] [Search This Site] [Privacy Policy]
Document: tropical_cyclone_cheri.htm Updated: 18 September 2016